sensor_id;sensor_type;location;lat;lon;timestamp;P1;durP1;ratioP1;P2;durP2;ratioP2
2021;SDS011;1015;49.756;6.994;2023-05-10T00:00:10;6.57;;;5.87;;
2021;SDS011;1015;49.756;6.994;2023-05-10T00:02:38;8.43;;;6.50;;
2021;SDS011;1015;49.756;6.994;2023-05-10T00:05:08;8.30;;;6.37;;
2021;SDS011;1015;49.756;6.994;2023-05-10T00:07:35;7.23;;;6.13;;
2021;SDS011;1015;49.756;6.994;2023-05-10T00:10:02;7.20;;;5.97;;
2021;SDS011;1015;49.756;6.994;2023-05-10T00:12:29;7.57;;;6.63;;
2021;SDS011;1015;49.756;6.994;2023-05-10T00:14:57;7.43;;;6.30;;
2021;SDS011;1015;49.756;6.994;2023-05-10T00:17:24;6.37;;;5.67;;
2021;SDS011;1015;49.756;6.994;2023-05-10T00:19:51;7.00;;;6.10;;
2021;SDS011;1015;49.756;6.994;2023-05-10T00:22:19;7.03;;;5.40;;
2021;SDS011;1015;49.756;6.994;2023-05-10T00:24:47;6.10;;;5.20;;
2021;SDS011;1015;49.756;6.994;2023-05-10T00:27:14;6.40;;;5.60;;
2021;SDS011;1015;49.756;6.994;2023-05-10T00:29:41;6.80;;;5.70;;
2021;SDS011;1015;49.756;6.994;2023-05-10T00:32:08;6.70;;;5.73;;
2021;SDS011;1015;49.756;6.994;2023-05-10T00:34:35;9.20;;;6.30;;
2021;SDS011;1015;49.756;6.994;2023-05-10T00:37:02;4.93;;;4.40;;
2021;SDS011;1015;49.756;6.994;2023-05-10T00:39:31;4.83;;;4.20;;
2021;SDS011;1015;49.756;6.994;2023-05-10T00:41:58;4.73;;;4.10;;
2021;SDS011;1015;49.756;6.994;2023-05-10T00:44:25;5.50;;;4.40;;
2021;SDS011;1015;49.756;6.994;2023-05-10T00:46:52;4.47;;;4.07;;
2021;SDS011;1015;49.756;6.994;2023-05-10T00:49:20;4.90;;;4.23;;
2021;SDS011;1015;49.756;6.994;2023-05-10T00:51:47;5.67;;;4.00;;
2021;SDS011;1015;49.756;6.994;2023-05-10T00:54:15;5.77;;;4.20;;
2021;SDS011;1015;49.756;6.994;2023-05-10T00:56:44;4.00;;;3.60;;
2021;SDS011;1015;49.756;6.994;2023-05-10T00:59:14;5.47;;;4.50;;
2021;SDS011;1015;49.756;6.994;2023-05-10T01:01:41;4.50;;;4.03;;
2021;SDS011;1015;49.756;6.994;2023-05-10T01:04:08;5.47;;;4.97;;
2021;SDS011;1015;49.756;6.994;2023-05-10T01:06:37;5.40;;;4.80;;
2021;SDS011;1015;49.756;6.994;2023-05-10T01:09:05;6.57;;;5.50;;
2021;SDS011;1015;49.756;6.994;2023-05-10T01:11:32;7.53;;;5.50;;
2021;SDS011;1015;49.756;6.994;2023-05-10T01:14:01;9.87;;;6.23;;
2021;SDS011;1015;49.756;6.994;2023-05-10T01:16:29;6.90;;;5.87;;
2021;SDS011;1015;49.756;6.994;2023-05-10T01:18:58;7.87;;;5.63;;
2021;SDS011;1015;49.756;6.994;2023-05-10T01:21:27;6.10;;;5.50;;
2021;SDS011;1015;49.756;6.994;2023-05-10T01:29:47;7.73;;;5.77;;
2021;SDS011;1015;49.756;6.994;2023-05-10T01:32:22;6.77;;;5.43;;
2021;SDS011;1015;49.756;6.994;2023-05-10T01:34:54;6.60;;;5.90;;
2021;SDS011;1015;49.756;6.994;2023-05-10T01:37:28;10.00;;;6.50;;
2021;SDS011;1015;49.756;6.994;2023-05-10T01:40:00;9.07;;;6.00;;
2021;SDS011;1015;49.756;6.994;2023-05-10T01:42:31;10.53;;;6.53;;
2021;SDS011;1015;49.756;6.994;2023-05-10T01:45:07;8.37;;;6.17;;
2021;SDS011;1015;49.756;6.994;2023-05-10T01:47:37;16.63;;;6.27;;
2021;SDS011;1015;49.756;6.994;2023-05-10T01:50:06;7.40;;;5.67;;
2021;SDS011;1015;49.756;6.994;2023-05-10T01:52:36;6.60;;;5.53;;
2021;SDS011;1015;49.756;6.994;2023-05-10T01:55:06;8.57;;;6.10;;
2021;SDS011;1015;49.756;6.994;2023-05-10T01:57:35;9.07;;;5.80;;
2021;SDS011;1015;49.756;6.994;2023-05-10T02:00:04;6.17;;;5.47;;
2021;SDS011;1015;49.756;6.994;2023-05-10T02:02:36;7.50;;;5.33;;
2021;SDS011;1015;49.756;6.994;2023-05-10T02:05:05;8.00;;;5.70;;
2021;SDS011;1015;49.756;6.994;2023-05-10T02:07:32;6.90;;;6.17;;
2021;SDS011;1015;49.756;6.994;2023-05-10T02:10:01;9.07;;;6.67;;
2021;SDS011;1015;49.756;6.994;2023-05-10T02:12:28;9.20;;;6.33;;
2021;SDS011;1015;49.756;6.994;2023-05-10T02:14:56;10.70;;;7.00;;
2021;SDS011;1015;49.756;6.994;2023-05-10T02:17:24;8.10;;;6.23;;
2021;SDS011;1015;49.756;6.994;2023-05-10T02:19:54;11.80;;;7.17;;
2021;SDS011;1015;49.756;6.994;2023-05-10T02:22:22;7.97;;;6.67;;
2021;SDS011;1015;49.756;6.994;2023-05-10T02:24:49;11.33;;;7.10;;
2021;SDS011;1015;49.756;6.994;2023-05-10T02:27:16;11.80;;;7.43;;
2021;SDS011;1015;49.756;6.994;2023-05-10T02:29:44;10.73;;;7.23;;
2021;SDS011;1015;49.756;6.994;2023-05-10T02:32:11;10.60;;;7.27;;
2021;SDS011;1015;49.756;6.994;2023-05-10T02:34:38;10.27;;;7.17;;
2021;SDS011;1015;49.756;6.994;2023-05-10T02:37:07;10.53;;;7.33;;
2021;SDS011;1015;49.756;6.994;2023-05-10T02:39:35;11.53;;;7.43;;
2021;SDS011;1015;49.756;6.994;2023-05-10T02:42:03;14.50;;;7.53;;
2021;SDS011;1015;49.756;6.994;2023-05-10T02:44:31;13.70;;;7.20;;
2021;SDS011;1015;49.756;6.994;2023-05-10T02:46:59;9.90;;;7.60;;
2021;SDS011;1015;49.756;6.994;2023-05-10T02:49:26;11.13;;;7.73;;
2021;SDS011;1015;49.756;6.994;2023-05-10T02:51:55;8.87;;;6.83;;
2021;SDS011;1015;49.756;6.994;2023-05-10T02:54:27;10.30;;;6.47;;
2021;SDS011;1015;49.756;6.994;2023-05-10T02:56:57;8.73;;;7.20;;
2021;SDS011;1015;49.756;6.994;2023-05-10T02:59:25;8.57;;;6.77;;
2021;SDS011;1015;49.756;6.994;2023-05-10T03:01:52;6.80;;;6.10;;
2021;SDS011;1015;49.756;6.994;2023-05-10T03:04:20;8.90;;;6.50;;
2021;SDS011;1015;49.756;6.994;2023-05-10T03:06:47;8.83;;;6.60;;
2021;SDS011;1015;49.756;6.994;2023-05-10T03:09:14;8.80;;;6.13;;
2021;SDS011;1015;49.756;6.994;2023-05-10T03:11:46;10.50;;;6.90;;
2021;SDS011;1015;49.756;6.994;2023-05-10T03:14:16;8.30;;;6.90;;
2021;SDS011;1015;49.756;6.994;2023-05-10T03:16:51;8.40;;;7.07;;
2021;SDS011;1015;49.756;6.994;2023-05-10T03:19:21;9.23;;;6.50;;
2021;SDS011;1015;49.756;6.994;2023-05-10T03:21:50;10.87;;;6.20;;
2021;SDS011;1015;49.756;6.994;2023-05-10T03:24:18;12.00;;;6.73;;
2021;SDS011;1015;49.756;6.994;2023-05-10T03:26:48;9.40;;;6.90;;
2021;SDS011;1015;49.756;6.994;2023-05-10T03:29:16;10.90;;;6.97;;
2021;SDS011;1015;49.756;6.994;2023-05-10T03:31:43;10.03;;;6.57;;
2021;SDS011;1015;49.756;6.994;2023-05-10T03:34:11;9.53;;;6.57;;
2021;SDS011;1015;49.756;6.994;2023-05-10T03:36:38;8.77;;;6.43;;
2021;SDS011;1015;49.756;6.994;2023-05-10T03:39:05;9.10;;;7.00;;
2021;SDS011;1015;49.756;6.994;2023-05-10T03:41:32;10.20;;;6.83;;
2021;SDS011;1015;49.756;6.994;2023-05-10T03:44:01;10.13;;;7.80;;
2021;SDS011;1015;49.756;6.994;2023-05-10T03:46:28;10.93;;;7.73;;
2021;SDS011;1015;49.756;6.994;2023-05-10T03:48:55;10.67;;;7.30;;
2021;SDS011;1015;49.756;6.994;2023-05-10T03:51:22;11.43;;;7.93;;
2021;SDS011;1015;49.756;6.994;2023-05-10T03:53:53;14.00;;;8.60;;
2021;SDS011;1015;49.756;6.994;2023-05-10T03:56:20;11.00;;;8.60;;
2021;SDS011;1015;49.756;6.994;2023-05-10T03:58:47;13.23;;;8.93;;
2021;SDS011;1015;49.756;6.994;2023-05-10T04:01:16;13.23;;;8.67;;
2021;SDS011;1015;49.756;6.994;2023-05-10T04:03:43;12.03;;;8.90;;
2021;SDS011;1015;49.756;6.994;2023-05-10T04:06:10;10.97;;;8.40;;
2021;SDS011;1015;49.756;6.994;2023-05-10T04:08:37;10.30;;;8.10;;
2021;SDS011;1015;49.756;6.994;2023-05-10T04:11:05;10.73;;;8.33;;
2021;SDS011;1015;49.756;6.994;2023-05-10T04:13:33;9.10;;;7.27;;
2021;SDS011;1015;49.756;6.994;2023-05-10T04:16:00;10.67;;;7.80;;
2021;SDS011;1015;49.756;6.994;2023-05-10T04:18:29;10.83;;;8.20;;
2021;SDS011;1015;49.756;6.994;2023-05-10T04:20:56;11.23;;;8.30;;
2021;SDS011;1015;49.756;6.994;2023-05-10T04:23:23;11.67;;;8.40;;
2021;SDS011;1015;49.756;6.994;2023-05-10T04:25:50;14.17;;;7.57;;
2021;SDS011;1015;49.756;6.994;2023-05-10T04:28:18;9.90;;;7.20;;
2021;SDS011;1015;49.756;6.994;2023-05-10T04:30:45;10.10;;;6.77;;
2021;SDS011;1015;49.756;6.994;2023-05-10T04:33:12;10.67;;;6.80;;
2021;SDS011;1015;49.756;6.994;2023-05-10T04:35:41;8.50;;;6.67;;
2021;SDS011;1015;49.756;6.994;2023-05-10T04:38:09;9.10;;;6.47;;
2021;SDS011;1015;49.756;6.994;2023-05-10T04:40:36;9.60;;;5.80;;
2021;SDS011;1015;49.756;6.994;2023-05-10T04:43:04;6.30;;;5.57;;
2021;SDS011;1015;49.756;6.994;2023-05-10T04:45:31;8.80;;;5.50;;
2021;SDS011;1015;49.756;6.994;2023-05-10T04:47:58;6.20;;;5.17;;
2021;SDS011;1015;49.756;6.994;2023-05-10T04:50:25;5.10;;;4.33;;
2021;SDS011;1015;49.756;6.994;2023-05-10T04:52:54;5.37;;;4.70;;
2021;SDS011;1015;49.756;6.994;2023-05-10T04:55:21;4.70;;;3.80;;
2021;SDS011;1015;49.756;6.994;2023-05-10T04:57:48;4.43;;;3.80;;
2021;SDS011;1015;49.756;6.994;2023-05-10T05:00:15;4.40;;;4.00;;
2021;SDS011;1015;49.756;6.994;2023-05-10T05:02:43;4.97;;;3.50;;
2021;SDS011;1015;49.756;6.994;2023-05-10T05:05:10;3.83;;;3.43;;
2021;SDS011;1015;49.756;6.994;2023-05-10T05:07:37;3.73;;;3.30;;
2021;SDS011;1015;49.756;6.994;2023-05-10T05:10:07;3.97;;;3.57;;
2021;SDS011;1015;49.756;6.994;2023-05-10T05:12:34;3.67;;;3.37;;
2021;SDS011;1015;49.756;6.994;2023-05-10T05:15:02;3.83;;;3.47;;
2021;SDS011;1015;49.756;6.994;2023-05-10T05:17:29;3.20;;;2.90;;
2021;SDS011;1015;49.756;6.994;2023-05-10T05:19:57;3.73;;;3.07;;
2021;SDS011;1015;49.756;6.994;2023-05-10T05:22:24;3.40;;;3.10;;
2021;SDS011;1015;49.756;6.994;2023-05-10T05:24:52;2.93;;;2.63;;
2021;SDS011;1015;49.756;6.994;2023-05-10T05:27:21;3.43;;;2.87;;
2021;SDS011;1015;49.756;6.994;2023-05-10T05:29:49;6.17;;;3.50;;
2021;SDS011;1015;49.756;6.994;2023-05-10T05:32:16;2.50;;;2.30;;
2021;SDS011;1015;49.756;6.994;2023-05-10T05:34:44;3.20;;;2.53;;
2021;SDS011;1015;49.756;6.994;2023-05-10T05:37:12;3.00;;;2.50;;
2021;SDS011;1015;49.756;6.994;2023-05-10T05:39:40;2.60;;;2.40;;
2021;SDS011;1015;49.756;6.994;2023-05-10T05:42:07;3.33;;;2.20;;
2021;SDS011;1015;49.756;6.994;2023-05-10T05:44:36;2.50;;;2.10;;
2021;SDS011;1015;49.756;6.994;2023-05-10T05:47:03;4.60;;;3.90;;
2021;SDS011;1015;49.756;6.994;2023-05-10T05:49:30;2.40;;;2.20;;
2021;SDS011;1015;49.756;6.994;2023-05-10T05:51:58;2.17;;;1.50;;
2021;SDS011;1015;49.756;6.994;2023-05-10T05:54:26;1.93;;;1.67;;
2021;SDS011;1015;49.756;6.994;2023-05-10T05:56:54;1.70;;;1.60;;
2021;SDS011;1015;49.756;6.994;2023-05-10T05:59:21;2.03;;;1.47;;
2021;SDS011;1015;49.756;6.994;2023-05-10T06:01:50;3.10;;;1.70;;
2021;SDS011;1015;49.756;6.994;2023-05-10T06:04:17;1.13;;;1.07;;
2021;SDS011;1015;49.756;6.994;2023-05-10T06:06:44;1.30;;;1.20;;
2021;SDS011;1015;49.756;6.994;2023-05-10T06:09:12;1.40;;;1.30;;
2021;SDS011;1015;49.756;6.994;2023-05-10T06:11:39;1.13;;;1.10;;
2021;SDS011;1015;49.756;6.994;2023-05-10T06:14:06;1.37;;;1.27;;
2021;SDS011;1015;49.756;6.994;2023-05-10T06:16:33;2.37;;;1.60;;
2021;SDS011;1015;49.756;6.994;2023-05-10T06:19:02;2.90;;;1.60;;
2021;SDS011;1015;49.756;6.994;2023-05-10T06:21:29;2.07;;;1.27;;
2021;SDS011;1015;49.756;6.994;2023-05-10T06:23:56;1.33;;;1.23;;
2021;SDS011;1015;49.756;6.994;2023-05-10T06:26:23;1.77;;;1.40;;
2021;SDS011;1015;49.756;6.994;2023-05-10T06:28:51;1.70;;;1.60;;
2021;SDS011;1015;49.756;6.994;2023-05-10T06:31:18;2.00;;;1.63;;
2021;SDS011;1015;49.756;6.994;2023-05-10T06:33:45;1.40;;;1.30;;
2021;SDS011;1015;49.756;6.994;2023-05-10T06:36:14;1.60;;;1.50;;
2021;SDS011;1015;49.756;6.994;2023-05-10T06:38:41;2.30;;;1.60;;
2021;SDS011;1015;49.756;6.994;2023-05-10T06:41:08;1.60;;;1.50;;
2021;SDS011;1015;49.756;6.994;2023-05-10T06:43:36;1.60;;;1.50;;
2021;SDS011;1015;49.756;6.994;2023-05-10T06:46:05;1.83;;;1.63;;
2021;SDS011;1015;49.756;6.994;2023-05-10T06:48:32;2.10;;;1.87;;
2021;SDS011;1015;49.756;6.994;2023-05-10T06:51:00;2.00;;;1.70;;
2021;SDS011;1015;49.756;6.994;2023-05-10T06:53:28;1.73;;;1.63;;
2021;SDS011;1015;49.756;6.994;2023-05-10T06:55:55;2.07;;;1.87;;
2021;SDS011;1015;49.756;6.994;2023-05-10T06:58:22;1.70;;;1.60;;
2021;SDS011;1015;49.756;6.994;2023-05-10T07:00:50;1.83;;;1.70;;
2021;SDS011;1015;49.756;6.994;2023-05-10T07:03:17;1.67;;;1.57;;
2021;SDS011;1015;49.756;6.994;2023-05-10T07:05:44;2.10;;;1.63;;
2021;SDS011;1015;49.756;6.994;2023-05-10T07:08:11;1.57;;;1.47;;
2021;SDS011;1015;49.756;6.994;2023-05-10T07:10:41;1.50;;;1.40;;
2021;SDS011;1015;49.756;6.994;2023-05-10T07:13:08;1.50;;;1.40;;
2021;SDS011;1015;49.756;6.994;2023-05-10T07:15:35;2.20;;;1.70;;
2021;SDS011;1015;49.756;6.994;2023-05-10T07:18:03;2.03;;;1.30;;
2021;SDS011;1015;49.756;6.994;2023-05-10T07:20:31;1.97;;;1.50;;
2021;SDS011;1015;49.756;6.994;2023-05-10T07:22:58;2.03;;;1.60;;
2021;SDS011;1015;49.756;6.994;2023-05-10T07:25:25;1.40;;;1.30;;
2021;SDS011;1015;49.756;6.994;2023-05-10T07:27:54;1.40;;;1.30;;
2021;SDS011;1015;49.756;6.994;2023-05-10T07:30:21;1.83;;;1.73;;
2021;SDS011;1015;49.756;6.994;2023-05-10T07:32:48;2.60;;;1.50;;
2021;SDS011;1015;49.756;6.994;2023-05-10T07:35:15;1.37;;;1.27;;
2021;SDS011;1015;49.756;6.994;2023-05-10T07:37:43;1.67;;;1.57;;
2021;SDS011;1015;49.756;6.994;2023-05-10T07:40:10;1.60;;;1.20;;
2021;SDS011;1015;49.756;6.994;2023-05-10T07:42:37;1.63;;;1.53;;
2021;SDS011;1015;49.756;6.994;2023-05-10T07:45:06;2.13;;;1.60;;
2021;SDS011;1015;49.756;6.994;2023-05-10T07:47:33;2.30;;;2.00;;
2021;SDS011;1015;49.756;6.994;2023-05-10T07:50:01;2.10;;;2.00;;
2021;SDS011;1015;49.756;6.994;2023-05-10T07:52:28;2.10;;;1.90;;
2021;SDS011;1015;49.756;6.994;2023-05-10T07:54:55;1.73;;;1.63;;
2021;SDS011;1015;49.756;6.994;2023-05-10T07:57:22;1.73;;;1.43;;
2021;SDS011;1015;49.756;6.994;2023-05-10T07:59:49;1.80;;;1.70;;
2021;SDS011;1015;49.756;6.994;2023-05-10T08:02:18;2.03;;;1.67;;
2021;SDS011;1015;49.756;6.994;2023-05-10T08:04:45;1.70;;;1.60;;
2021;SDS011;1015;49.756;6.994;2023-05-10T08:07:12;2.13;;;1.93;;
2021;SDS011;1015;49.756;6.994;2023-05-10T08:09:40;1.73;;;1.47;;
2021;SDS011;1015;49.756;6.994;2023-05-10T08:12:07;1.47;;;1.37;;
2021;SDS011;1015;49.756;6.994;2023-05-10T08:14:34;1.10;;;1.10;;
2021;SDS011;1015;49.756;6.994;2023-05-10T08:17:02;1.70;;;1.30;;
2021;SDS011;1015;49.756;6.994;2023-05-10T08:19:31;1.67;;;1.23;;
2021;SDS011;1015;49.756;6.994;2023-05-10T08:21:58;1.70;;;1.60;;
2021;SDS011;1015;49.756;6.994;2023-05-10T08:24:25;2.03;;;1.43;;
2021;SDS011;1015;49.756;6.994;2023-05-10T08:26:52;1.50;;;1.40;;
2021;SDS011;1015;49.756;6.994;2023-05-10T08:29:20;2.27;;;1.60;;
2021;SDS011;1015;49.756;6.994;2023-05-10T08:31:47;1.30;;;1.13;;
2021;SDS011;1015;49.756;6.994;2023-05-10T08:34:14;1.50;;;1.40;;
2021;SDS011;1015;49.756;6.994;2023-05-10T08:36:43;1.60;;;1.40;;
2021;SDS011;1015;49.756;6.994;2023-05-10T08:39:10;1.30;;;1.20;;
2021;SDS011;1015;49.756;6.994;2023-05-10T08:41:37;1.97;;;1.53;;
2021;SDS011;1015;49.756;6.994;2023-05-10T08:44:05;1.60;;;1.27;;
2021;SDS011;1015;49.756;6.994;2023-05-10T08:46:34;1.50;;;1.40;;
2021;SDS011;1015;49.756;6.994;2023-05-10T08:49:05;1.70;;;1.50;;
2021;SDS011;1015;49.756;6.994;2023-05-10T08:51:35;1.47;;;1.37;;
2021;SDS011;1015;49.756;6.994;2023-05-10T08:54:04;1.20;;;1.10;;
2021;SDS011;1015;49.756;6.994;2023-05-10T08:56:32;1.33;;;1.20;;
2021;SDS011;1015;49.756;6.994;2023-05-10T08:58:59;3.07;;;1.33;;
2021;SDS011;1015;49.756;6.994;2023-05-10T09:01:27;1.37;;;1.27;;
2021;SDS011;1015;49.756;6.994;2023-05-10T09:03:54;1.37;;;1.27;;
2021;SDS011;1015;49.756;6.994;2023-05-10T09:06:22;1.77;;;1.40;;
2021;SDS011;1015;49.756;6.994;2023-05-10T09:08:49;1.10;;;1.10;;
2021;SDS011;1015;49.756;6.994;2023-05-10T09:11:18;1.13;;;1.03;;
2021;SDS011;1015;49.756;6.994;2023-05-10T09:13:47;1.03;;;0.93;;
2021;SDS011;1015;49.756;6.994;2023-05-10T09:16:14;3.23;;;1.10;;
2021;SDS011;1015;49.756;6.994;2023-05-10T09:18:42;1.07;;;0.97;;
2021;SDS011;1015;49.756;6.994;2023-05-10T09:21:09;0.77;;;0.77;;
2021;SDS011;1015;49.756;6.994;2023-05-10T09:23:36;0.93;;;0.77;;
2021;SDS011;1015;49.756;6.994;2023-05-10T09:26:04;0.70;;;0.70;;
2021;SDS011;1015;49.756;6.994;2023-05-10T09:28:33;0.80;;;0.80;;
2021;SDS011;1015;49.756;6.994;2023-05-10T09:31:00;1.00;;;0.90;;
2021;SDS011;1015;49.756;6.994;2023-05-10T09:33:28;2.00;;;0.80;;
2021;SDS011;1015;49.756;6.994;2023-05-10T09:35:55;1.20;;;1.10;;
2021;SDS011;1015;49.756;6.994;2023-05-10T09:38:44;1.50;;;1.20;;
2021;SDS011;1015;49.756;6.994;2023-05-10T09:41:15;1.00;;;0.90;;
2021;SDS011;1015;49.756;6.994;2023-05-10T09:43:44;1.67;;;1.00;;
2021;SDS011;1015;49.756;6.994;2023-05-10T09:46:11;2.20;;;1.20;;
2021;SDS011;1015;49.756;6.994;2023-05-10T09:48:40;2.07;;;1.30;;
2021;SDS011;1015;49.756;6.994;2023-05-10T09:51:08;2.03;;;1.27;;
2021;SDS011;1015;49.756;6.994;2023-05-10T09:53:35;1.50;;;1.33;;
2021;SDS011;1015;49.756;6.994;2023-05-10T09:56:02;2.63;;;1.70;;
2021;SDS011;1015;49.756;6.994;2023-05-10T09:58:30;1.87;;;1.60;;
2021;SDS011;1015;49.756;6.994;2023-05-10T10:00:58;1.77;;;1.63;;
2021;SDS011;1015;49.756;6.994;2023-05-10T10:03:25;1.70;;;1.57;;
2021;SDS011;1015;49.756;6.994;2023-05-10T10:05:54;4.20;;;2.07;;
2021;SDS011;1015;49.756;6.994;2023-05-10T10:08:21;2.37;;;1.70;;
2021;SDS011;1015;49.756;6.994;2023-05-10T10:10:49;2.90;;;2.30;;
2021;SDS011;1015;49.756;6.994;2023-05-10T10:13:16;3.60;;;2.50;;
2021;SDS011;1015;49.756;6.994;2023-05-10T10:15:43;2.80;;;2.07;;
2021;SDS011;1015;49.756;6.994;2023-05-10T10:18:14;3.40;;;2.10;;
2021;SDS011;1015;49.756;6.994;2023-05-10T10:20:41;3.13;;;1.90;;
2021;SDS011;1015;49.756;6.994;2023-05-10T10:23:08;1.67;;;1.50;;
2021;SDS011;1015;49.756;6.994;2023-05-10T10:25:35;2.47;;;1.90;;
2021;SDS011;1015;49.756;6.994;2023-05-10T10:28:09;2.60;;;1.80;;
2021;SDS011;1015;49.756;6.994;2023-05-10T10:30:39;2.47;;;1.80;;
2021;SDS011;1015;49.756;6.994;2023-05-10T10:35:52;3.07;;;2.00;;
2021;SDS011;1015;49.756;6.994;2023-05-10T10:38:19;3.00;;;1.93;;
2021;SDS011;1015;49.756;6.994;2023-05-10T10:40:47;2.80;;;2.20;;
2021;SDS011;1015;49.756;6.994;2023-05-10T10:43:21;2.00;;;1.80;;
2021;SDS011;1015;49.756;6.994;2023-05-10T10:48:31;4.63;;;1.97;;
2021;SDS011;1015;49.756;6.994;2023-05-10T10:51:00;3.50;;;2.07;;
2021;SDS011;1015;49.756;6.994;2023-05-10T10:53:27;2.07;;;1.90;;
2021;SDS011;1015;49.756;6.994;2023-05-10T10:56:02;3.90;;;1.80;;
2021;SDS011;1015;49.756;6.994;2023-05-10T10:58:33;3.80;;;1.90;;
2021;SDS011;1015;49.756;6.994;2023-05-10T11:01:13;2.30;;;1.87;;
2021;SDS011;1015;49.756;6.994;2023-05-10T11:03:40;2.87;;;2.03;;
2021;SDS011;1015;49.756;6.994;2023-05-10T11:06:09;3.10;;;1.97;;
2021;SDS011;1015;49.756;6.994;2023-05-10T11:08:41;4.40;;;2.40;;
2021;SDS011;1015;49.756;6.994;2023-05-10T11:11:09;2.57;;;1.93;;
2021;SDS011;1015;49.756;6.994;2023-05-10T11:13:41;2.60;;;1.93;;
2021;SDS011;1015;49.756;6.994;2023-05-10T11:16:12;3.30;;;1.93;;
2021;SDS011;1015;49.756;6.994;2023-05-10T11:18:39;2.53;;;1.93;;
2021;SDS011;1015;49.756;6.994;2023-05-10T11:21:09;2.70;;;2.00;;
2021;SDS011;1015;49.756;6.994;2023-05-10T11:26:22;1.90;;;1.80;;
2021;SDS011;1015;49.756;6.994;2023-05-10T11:28:50;2.67;;;2.33;;
2021;SDS011;1015;49.756;6.994;2023-05-10T11:31:18;4.50;;;2.37;;
2021;SDS011;1015;49.756;6.994;2023-05-10T11:33:46;2.90;;;2.23;;
2021;SDS011;1015;49.756;6.994;2023-05-10T11:36:16;2.70;;;2.10;;
2021;SDS011;1015;49.756;6.994;2023-05-10T11:38:43;3.80;;;2.10;;
2021;SDS011;1015;49.756;6.994;2023-05-10T11:41:11;5.17;;;2.30;;
2021;SDS011;1015;49.756;6.994;2023-05-10T11:43:39;2.57;;;2.37;;
2021;SDS011;1015;49.756;6.994;2023-05-10T11:46:07;2.47;;;2.07;;
2021;SDS011;1015;49.756;6.994;2023-05-10T11:48:34;3.27;;;2.30;;
2021;SDS011;1015;49.756;6.994;2023-05-10T11:51:02;2.13;;;1.93;;
2021;SDS011;1015;49.756;6.994;2023-05-10T11:53:31;1.93;;;1.63;;
2021;SDS011;1015;49.756;6.994;2023-05-10T11:56:02;2.30;;;1.10;;
2021;SDS011;1015;49.756;6.994;2023-05-10T11:58:30;1.60;;;1.03;;
2021;SDS011;1015;49.756;6.994;2023-05-10T12:00:58;1.20;;;1.10;;
2021;SDS011;1015;49.756;6.994;2023-05-10T12:03:25;3.20;;;1.30;;
2021;SDS011;1015;49.756;6.994;2023-05-10T12:05:52;1.87;;;1.77;;
2021;SDS011;1015;49.756;6.994;2023-05-10T12:08:20;2.27;;;1.43;;
2021;SDS011;1015;49.756;6.994;2023-05-10T12:10:50;1.80;;;1.70;;
2021;SDS011;1015;49.756;6.994;2023-05-10T12:13:17;1.73;;;1.50;;
2021;SDS011;1015;49.756;6.994;2023-05-10T12:15:45;2.47;;;1.33;;
2021;SDS011;1015;49.756;6.994;2023-05-10T12:18:13;2.30;;;1.73;;
2021;SDS011;1015;49.756;6.994;2023-05-10T12:20:41;1.40;;;1.30;;
2021;SDS011;1015;49.756;6.994;2023-05-10T12:23:09;1.60;;;1.50;;
2021;SDS011;1015;49.756;6.994;2023-05-10T12:25:36;1.57;;;1.27;;
2021;SDS011;1015;49.756;6.994;2023-05-10T12:28:07;1.40;;;1.20;;
2021;SDS011;1015;49.756;6.994;2023-05-10T12:30:35;1.83;;;1.17;;
2021;SDS011;1015;49.756;6.994;2023-05-10T12:33:06;1.20;;;1.10;;
2021;SDS011;1015;49.756;6.994;2023-05-10T12:35:44;1.83;;;1.30;;
2021;SDS011;1015;49.756;6.994;2023-05-10T12:38:24;1.53;;;1.13;;
2021;SDS011;1015;49.756;6.994;2023-05-10T12:40:52;2.30;;;1.60;;
2021;SDS011;1015;49.756;6.994;2023-05-10T12:43:20;1.50;;;1.20;;
2021;SDS011;1015;49.756;6.994;2023-05-10T12:45:47;1.73;;;0.90;;
2021;SDS011;1015;49.756;6.994;2023-05-10T12:48:14;1.50;;;1.23;;
2021;SDS011;1015;49.756;6.994;2023-05-10T12:50:42;1.17;;;1.00;;
2021;SDS011;1015;49.756;6.994;2023-05-10T12:53:09;1.43;;;1.20;;
2021;SDS011;1015;49.756;6.994;2023-05-10T12:55:36;1.30;;;1.13;;
2021;SDS011;1015;49.756;6.994;2023-05-10T12:58:03;1.50;;;1.40;;
2021;SDS011;1015;49.756;6.994;2023-05-10T13:00:32;3.23;;;1.27;;
2021;SDS011;1015;49.756;6.994;2023-05-10T13:02:59;2.40;;;1.20;;
2021;SDS011;1015;49.756;6.994;2023-05-10T13:05:26;1.50;;;0.90;;
2021;SDS011;1015;49.756;6.994;2023-05-10T13:07:53;1.00;;;0.90;;
2021;SDS011;1015;49.756;6.994;2023-05-10T13:10:21;1.23;;;1.00;;
2021;SDS011;1015;49.756;6.994;2023-05-10T13:12:48;0.93;;;0.90;;
2021;SDS011;1015;49.756;6.994;2023-05-10T13:15:16;1.00;;;0.90;;
2021;SDS011;1015;49.756;6.994;2023-05-10T13:17:44;1.10;;;1.00;;
2021;SDS011;1015;49.756;6.994;2023-05-10T13:20:11;1.23;;;1.13;;
2021;SDS011;1015;49.756;6.994;2023-05-10T13:22:39;1.20;;;0.90;;
2021;SDS011;1015;49.756;6.994;2023-05-10T13:25:07;3.17;;;1.30;;
2021;SDS011;1015;49.756;6.994;2023-05-10T13:27:34;0.90;;;0.90;;
2021;SDS011;1015;49.756;6.994;2023-05-10T13:30:01;1.30;;;1.20;;
2021;SDS011;1015;49.756;6.994;2023-05-10T13:32:29;2.00;;;1.03;;
2021;SDS011;1015;49.756;6.994;2023-05-10T13:34:57;1.20;;;1.10;;
2021;SDS011;1015;49.756;6.994;2023-05-10T13:37:25;1.50;;;0.90;;
2021;SDS011;1015;49.756;6.994;2023-05-10T13:39:52;1.00;;;0.90;;
2021;SDS011;1015;49.756;6.994;2023-05-10T13:42:19;1.83;;;1.40;;
2021;SDS011;1015;49.756;6.994;2023-05-10T13:44:46;1.97;;;1.20;;
2021;SDS011;1015;49.756;6.994;2023-05-10T13:47:13;1.63;;;1.40;;
2021;SDS011;1015;49.756;6.994;2023-05-10T13:49:40;3.00;;;1.50;;
2021;SDS011;1015;49.756;6.994;2023-05-10T13:52:09;1.80;;;1.70;;
2021;SDS011;1015;49.756;6.994;2023-05-10T13:54:37;1.80;;;1.33;;
2021;SDS011;1015;49.756;6.994;2023-05-10T13:57:04;2.90;;;1.60;;
2021;SDS011;1015;49.756;6.994;2023-05-10T13:59:31;1.83;;;1.40;;
2021;SDS011;1015;49.756;6.994;2023-05-10T14:01:58;3.90;;;1.50;;
2021;SDS011;1015;49.756;6.994;2023-05-10T14:04:27;1.87;;;1.53;;
2021;SDS011;1015;49.756;6.994;2023-05-10T14:06:54;2.03;;;1.47;;
2021;SDS011;1015;49.756;6.994;2023-05-10T14:09:23;3.63;;;1.37;;
2021;SDS011;1015;49.756;6.994;2023-05-10T14:11:50;1.47;;;1.20;;
2021;SDS011;1015;49.756;6.994;2023-05-10T14:14:17;2.03;;;1.37;;
2021;SDS011;1015;49.756;6.994;2023-05-10T14:16:44;1.33;;;1.23;;
2021;SDS011;1015;49.756;6.994;2023-05-10T14:19:12;2.93;;;1.20;;
2021;SDS011;1015;49.756;6.994;2023-05-10T14:21:39;1.27;;;1.17;;
2021;SDS011;1015;49.756;6.994;2023-05-10T14:24:06;1.30;;;1.20;;
2021;SDS011;1015;49.756;6.994;2023-05-10T14:26:35;1.57;;;1.47;;
2021;SDS011;1015;49.756;6.994;2023-05-10T14:29:02;1.40;;;1.30;;
2021;SDS011;1015;49.756;6.994;2023-05-10T14:31:29;1.70;;;1.20;;
2021;SDS011;1015;49.756;6.994;2023-05-10T14:33:56;1.40;;;1.30;;
2021;SDS011;1015;49.756;6.994;2023-05-10T14:36:24;3.00;;;0.97;;
2021;SDS011;1015;49.756;6.994;2023-05-10T14:38:51;1.93;;;1.10;;
2021;SDS011;1015;49.756;6.994;2023-05-10T14:41:18;1.60;;;1.00;;
2021;SDS011;1015;49.756;6.994;2023-05-10T14:43:47;2.53;;;1.20;;
2021;SDS011;1015;49.756;6.994;2023-05-10T14:46:14;1.57;;;1.20;;
2021;SDS011;1015;49.756;6.994;2023-05-10T14:48:42;3.10;;;1.23;;
2021;SDS011;1015;49.756;6.994;2023-05-10T14:51:09;1.10;;;1.00;;
2021;SDS011;1015;49.756;6.994;2023-05-10T14:53:36;0.80;;;0.80;;
2021;SDS011;1015;49.756;6.994;2023-05-10T14:56:03;2.43;;;1.07;;
2021;SDS011;1015;49.756;6.994;2023-05-10T14:58:31;1.37;;;1.03;;
2021;SDS011;1015;49.756;6.994;2023-05-10T15:00:59;1.20;;;1.10;;
2021;SDS011;1015;49.756;6.994;2023-05-10T15:03:26;0.80;;;0.77;;
2021;SDS011;1015;49.756;6.994;2023-05-10T15:05:53;4.00;;;0.97;;
2021;SDS011;1015;49.756;6.994;2023-05-10T15:08:22;1.50;;;1.00;;
2021;SDS011;1015;49.756;6.994;2023-05-10T15:10:50;1.50;;;1.10;;
2021;SDS011;1015;49.756;6.994;2023-05-10T15:13:17;0.80;;;0.70;;
2021;SDS011;1015;49.756;6.994;2023-05-10T15:15:44;1.90;;;1.00;;
2021;SDS011;1015;49.756;6.994;2023-05-10T15:18:13;0.93;;;0.93;;
2021;SDS011;1015;49.756;6.994;2023-05-10T15:20:40;1.17;;;1.00;;
2021;SDS011;1015;49.756;6.994;2023-05-10T15:23:07;1.00;;;0.93;;
2021;SDS011;1015;49.756;6.994;2023-05-10T15:25:34;1.40;;;1.30;;
2021;SDS011;1015;49.756;6.994;2023-05-10T15:28:02;2.53;;;1.40;;
2021;SDS011;1015;49.756;6.994;2023-05-10T15:30:29;3.40;;;1.10;;
2021;SDS011;1015;49.756;6.994;2023-05-10T15:32:56;1.13;;;0.90;;